Time;durP1;ratioP1;P1;durP2;ratioP2;P2;SDS_P1;SDS_P2;PMS_P1;PMS_P2;Temp;Humidity;BMP_temperature;BMP_pressure;BME280_temperature;BME280_humidity;BME280_pressure;Samples;Min_cycle;Max_cycle;Signal;HPM_P1;HPM_P2
2023/09/13 00:02:26;;;;;;;6.80;4.10;;;;;;;25.32;100.00;100768.84;4990551;28;20050;-45
2023/09/13 00:04:56;;;;;;;7.13;4.13;;;;;;;25.37;100.00;100767.28;4990791;28;20057;-44
2023/09/13 00:07:23;;;;;;;4.88;3.45;;;;;;;25.37;100.00;100765.22;4990709;28;20077;-45
2023/09/13 00:09:50;;;;;;;6.47;3.83;;;;;;;25.36;100.00;100772.22;4990509;28;20138;-46
2023/09/13 00:12:16;;;;;;;5.85;3.80;;;;;;;25.37;100.00;100770.13;4988797;28;20061;-45
2023/09/13 00:14:43;;;;;;;6.32;3.55;;;;;;;25.37;100.00;100768.06;4998067;28;20141;-44
2023/09/13 00:17:09;;;;;;;8.38;4.43;;;;;;;25.37;100.00;100765.22;4990039;28;20054;-47
2023/09/13 00:19:37;;;;;;;6.30;3.78;;;;;;;25.37;100.00;100770.91;4990151;28;20066;-46
2023/09/13 00:22:04;;;;;;;8.40;4.00;;;;;;;25.37;100.00;100768.06;4990128;28;20054;-47
2023/09/13 00:24:31;;;;;;;5.78;3.80;;;;;;;25.37;100.00;100770.91;4990316;28;20100;-48
2023/09/13 00:26:57;;;;;;;7.78;4.13;;;;;;;25.38;100.00;100775.28;4998092;28;20086;-45
2023/09/13 00:29:24;;;;;;;7.43;4.03;;;;;;;25.38;100.00;100780.97;4993038;28;20132;-46
2023/09/13 00:31:54;;;;;;;6.18;3.85;;;;;;;25.37;100.00;100781.50;4989861;28;20141;-45
2023/09/13 00:34:20;;;;;;;5.78;3.70;;;;;;;25.38;100.00;100785.91;4990106;28;20053;-45
2023/09/13 00:36:47;;;;;;;6.30;4.22;;;;;;;25.36;100.00;100792.13;4989076;28;20488;-44
2023/09/13 00:39:14;;;;;;;7.40;3.70;;;;;;;25.35;100.00;100799.09;4984351;28;20054;-46
2023/09/13 00:41:41;;;;;;;5.80;3.53;;;;;;;25.35;100.00;100801.94;4990053;28;20077;-48
2023/09/13 00:44:07;;;;;;;7.57;3.70;;;;;;;25.34;100.00;100803.25;4990250;28;20157;-47
2023/09/13 00:46:34;;;;;;;7.00;4.07;;;;;;;25.35;100.00;100806.88;4988712;28;20050;-46
2023/09/13 00:49:02;;;;;;;6.28;3.60;;;;;;;25.31;100.00;100812.06;4989684;28;20054;-45
2023/09/13 00:51:29;;;;;;;5.95;3.28;;;;;;;25.32;100.00;100814.38;4989248;28;20569;-47
2023/09/13 00:53:57;;;;;;;5.47;3.50;;;;;;;25.34;100.00;100811.03;4982087;28;20066;-45
2023/09/13 00:56:25;;;;;;;6.90;3.80;;;;;;;25.34;100.00;100813.88;4995866;28;20119;-45
2023/09/13 00:58:55;;;;;;;6.13;3.30;;;;;;;25.30;100.00;100814.09;4989716;28;20137;-44
2023/09/13 01:01:22;;;;;;;5.93;3.55;;;;;;;25.33;100.00;100817.97;4989569;28;20100;-46
2023/09/13 01:03:49;;;;;;;6.47;3.90;;;;;;;25.36;100.00;100825.50;4989389;28;20136;-44
2023/09/13 01:06:16;;;;;;;5.82;3.45;;;;;;;25.35;100.00;100818.25;4984176;28;20565;-47
2023/09/13 01:08:45;;;;;;;5.60;3.53;;;;;;;25.35;100.00;100816.16;4987893;28;20054;-49
2023/09/13 01:11:12;;;;;;;6.55;3.80;;;;;;;25.35;100.00;100821.84;4992996;28;20058;-45
2023/09/13 01:13:38;;;;;;;6.45;3.83;;;;;;;25.33;100.00;100810.22;4993066;28;20768;-46
2023/09/13 01:16:31;;;;;;;8.50;3.90;;;;;;;25.35;100.00;100813.31;4989519;28;20129;-47
2023/09/13 01:19:05;;;;;;;6.68;3.85;;;;;;;25.37;100.00;100810.75;4963943;28;20493;-46
2023/09/13 01:22:07;;;;;;;6.68;3.75;;;;;;;25.34;100.00;100808.94;4989511;28;20105;-45
2023/09/13 01:25:00;;;;;;;5.38;3.47;;;;;;;25.32;100.00;100807.91;4970168;28;20057;-48
2023/09/13 01:27:31;;;;;;;6.10;3.55;;;;;;;25.36;100.00;100805.56;4988357;28;20124;-45
2023/09/13 01:30:00;;;;;;;4.57;3.38;;;;;;;25.37;100.00;100804.25;4994021;28;20058;-45
2023/09/13 01:32:27;;;;;;;7.70;3.72;;;;;;;25.33;100.00;100804.53;4988784;28;20054;-45
2023/09/13 01:34:53;;;;;;;8.35;3.53;;;;;;;25.33;100.00;100810.22;4991766;28;20050;-45
2023/09/13 01:37:20;;;;;;;7.57;3.60;;;;;;;25.32;100.00;100814.38;4993098;28;20477;-46
2023/09/13 01:39:46;;;;;;;5.75;3.70;;;;;;;25.32;100.00;100810.75;4991012;28;20436;-46
2023/09/13 01:42:13;;;;;;;6.25;3.63;;;;;;;25.30;100.00;100816.97;5003238;28;20042;-44
2023/09/13 01:44:43;;;;;;;5.93;3.58;;;;;;;25.33;100.00;100813.06;4989197;28;20057;-45
2023/09/13 01:47:10;;;;;;;7.45;3.75;;;;;;;25.34;100.00;100813.88;4994674;28;20452;-44
2023/09/13 01:49:38;;;;;;;6.50;3.80;;;;;;;25.30;100.00;100816.16;5004836;28;20161;-45
2023/09/13 01:52:10;;;;;;;6.75;3.60;;;;;;;25.31;100.00;100812.81;4988540;28;20074;-45
2023/09/13 01:54:37;;;;;;;6.45;3.92;;;;;;;25.33;100.00;100826.53;4988851;28;20050;-45
2023/09/13 01:57:04;;;;;;;5.50;3.60;;;;;;;25.32;100.00;100828.59;4989205;28;20054;-44
2023/09/13 01:59:33;;;;;;;6.80;3.53;;;;;;;25.34;100.00;100830.94;4987298;28;20477;-46
2023/09/13 02:02:00;;;;;;;5.75;3.60;;;;;;;25.34;100.00;100828.09;4988647;28;20081;-43
2023/09/13 02:04:31;;;;;;;5.00;3.58;;;;;;;25.31;100.00;100829.88;4988847;28;20060;-46
2023/09/13 02:07:00;;;;;;;5.90;3.53;;;;;;;25.32;100.00;100828.59;4989142;28;20065;-45
2023/09/13 02:09:27;;;;;;;7.32;4.10;;;;;;;25.30;100.00;100839.72;4988878;28;20058;-45
2023/09/13 02:11:53;;;;;;;5.85;3.75;;;;;;;25.31;100.00;100835.56;4987912;28;20046;-45
2023/09/13 02:14:20;;;;;;;6.85;3.80;;;;;;;25.33;100.00;100838.69;4988211;28;20607;-45
2023/09/13 02:16:46;;;;;;;6.38;3.30;;;;;;;25.31;100.00;100832.72;4995029;28;20145;-46
2023/09/13 02:19:13;;;;;;;5.30;3.35;;;;;;;25.34;100.00;100833.78;4988895;28;20054;-46
2023/09/13 02:21:45;;;;;;;5.38;3.45;;;;;;;25.34;100.00;100830.94;4988773;28;20045;-46
2023/09/13 02:24:12;;;;;;;5.10;3.50;;;;;;;25.35;100.00;100835.31;4989145;28;20142;-46
2023/09/13 02:26:40;;;;;;;5.35;3.35;;;;;;;25.32;100.00;100837.16;4988470;28;20050;-45
2023/09/13 02:29:06;;;;;;;5.22;3.38;;;;;;;25.32;100.00;100831.47;4988663;28;20082;-45
2023/09/13 02:31:33;;;;;;;5.65;3.40;;;;;;;25.34;100.00;100833.78;4988255;28;20138;-45
2023/09/13 02:33:59;;;;;;;6.47;3.70;;;;;;;25.34;100.00;100837.38;4987560;28;20054;-45
2023/09/13 02:36:26;;;;;;;6.07;3.53;;;;;;;25.31;100.00;100829.88;4988615;28;20563;-47
2023/09/13 02:38:53;;;;;;;6.30;3.63;;;;;;;25.29;100.00;100829.63;4988746;28;20125;-45
2023/09/13 02:41:20;;;;;;;5.70;3.47;;;;;;;25.33;100.00;100835.84;4990960;28;20133;-44
2023/09/13 02:43:46;;;;;;;6.05;3.70;;;;;;;25.33;100.00;100837.91;4991894;28;20100;-44
2023/09/13 02:46:13;;;;;;;6.00;3.72;;;;;;;25.32;100.00;100837.16;4991817;28;20042;-47
2023/09/13 02:48:40;;;;;;;5.25;3.40;;;;;;;25.32;100.00;100837.16;4990823;28;20089;-45
2023/09/13 02:51:13;;;;;;;4.53;3.00;;;;;;;25.33;100.00;100840.75;4992241;28;20046;-45
2023/09/13 02:53:41;;;;;;;5.32;3.15;;;;;;;25.32;100.00;100840.00;4991491;28;20046;-45
2023/09/13 02:56:08;;;;;;;6.07;3.28;;;;;;;25.30;100.00;100842.56;4990735;28;20488;-45
2023/09/13 02:58:35;;;;;;;5.18;3.60;;;;;;;25.34;100.00;100845.94;4990836;28;20524;-44
2023/09/13 03:01:04;;;;;;;5.15;3.63;;;;;;;25.29;100.00;100846.72;4991861;28;20050;-45
2023/09/13 03:03:32;;;;;;;6.13;3.22;;;;;;;25.32;100.00;100848.53;4996948;28;20047;-47
2023/09/13 03:06:11;;;;;;;4.70;3.35;;;;;;;25.33;100.00;100854.97;4991893;28;20054;-46
2023/09/13 03:08:38;;;;;;;6.55;3.72;;;;;;;25.35;100.00;100858.84;4996952;28;20062;-44
2023/09/13 03:11:11;;;;;;;5.25;3.30;;;;;;;25.33;100.00;100858.59;4991224;28;20138;-44
2023/09/13 03:13:38;;;;;;;5.63;3.35;;;;;;;25.29;100.00;100849.56;4991466;28;20133;-44
2023/09/13 03:16:12;;;;;;;5.65;3.40;;;;;;;25.31;100.00;100846.94;4991558;28;20054;-43
2023/09/13 03:18:39;;;;;;;4.22;3.03;;;;;;;25.32;100.00;100844.91;4991297;28;20505;-46
2023/09/13 03:21:08;;;;;;;6.55;3.88;;;;;;;25.29;100.00;100855.25;4990375;28;20551;-48
2023/09/13 03:23:39;;;;;;;5.10;3.33;;;;;;;25.30;100.00;100844.63;4991156;28;20560;-46
2023/09/13 03:26:14;;;;;;;6.13;3.60;;;;;;;25.31;100.00;100846.94;4991543;28;20137;-45
2023/09/13 03:28:44;;;;;;;5.70;3.67;;;;;;;25.31;100.00;100849.81;4990864;28;20797;-46
2023/09/13 03:31:11;;;;;;;5.65;3.38;;;;;;;25.33;100.00;100852.91;4991386;28;20452;-46
2023/09/13 03:33:39;;;;;;;6.00;3.53;;;;;;;25.35;100.00;100844.63;4991250;28;20050;-45
2023/09/13 03:36:08;;;;;;;5.07;3.20;;;;;;;25.32;100.00;100854.22;4989954;28;20050;-45
2023/09/13 03:38:42;;;;;;;5.55;3.08;;;;;;;25.35;100.00;100853.16;4991079;28;20523;-48
2023/09/13 03:41:10;;;;;;;5.70;3.47;;;;;;;25.34;100.00;100856.56;4991404;28;20046;-44
2023/09/13 03:43:37;;;;;;;5.10;3.08;;;;;;;25.33;100.00;100867.16;4991179;28;20086;-48
2023/09/13 03:46:05;;;;;;;6.60;3.80;;;;;;;25.35;100.00;100858.09;4990797;28;20058;-44
2023/09/13 03:48:33;;;;;;;6.10;3.90;;;;;;;25.32;100.00;100862.75;4990766;28;20420;-44
2023/09/13 03:51:00;;;;;;;5.65;3.25;;;;;;;25.30;100.00;100851.09;4998405;28;20476;-44
2023/09/13 03:53:27;;;;;;;5.63;3.22;;;;;;;25.29;100.00;100858.09;4992753;28;20046;-45
2023/09/13 03:55:54;;;;;;;7.03;3.65;;;;;;;25.29;100.00;100860.94;4995790;28;20124;-43
2023/09/13 03:58:21;;;;;;;5.38;3.35;;;;;;;25.27;100.00;100863.50;4990792;28;20085;-46
2023/09/13 04:00:48;;;;;;;5.40;3.28;;;;;;;25.33;100.00;100872.06;4990724;28;20141;-46
2023/09/13 04:03:19;;;;;;;5.78;3.30;;;;;;;25.31;100.00;100869.72;4990632;28;20062;-45
2023/09/13 04:05:46;;;;;;;5.38;2.92;;;;;;;25.32;100.00;100862.75;4990619;28;20525;-47
2023/09/13 04:08:12;;;;;;;5.13;3.10;;;;;;;25.33;100.00;100863.50;4989051;28;20046;-45
2023/09/13 04:10:39;;;;;;;4.85;3.17;;;;;;;25.30;100.00;100856.00;4998519;28;20046;-47
2023/09/13 04:13:06;;;;;;;5.30;3.20;;;;;;;25.28;100.00;100859.38;4990406;28;20101;-45
2023/09/13 04:15:33;;;;;;;6.07;3.50;;;;;;;25.29;100.00;100860.94;4990253;28;20054;-45
2023/09/13 04:17:59;;;;;;;5.10;3.13;;;;;;;25.27;100.00;100857.81;4989550;28;20062;-45
2023/09/13 04:20:26;;;;;;;5.78;3.10;;;;;;;25.27;100.00;100869.19;4993922;28;20046;-45
2023/09/13 04:22:52;;;;;;;5.05;3.17;;;;;;;25.28;100.00;100864.31;4990218;28;20074;-46
2023/09/13 04:25:19;;;;;;;5.90;3.33;;;;;;;25.28;100.00;100861.47;4996573;28;20077;-45
2023/09/13 04:27:47;;;;;;;5.00;3.28;;;;;;;25.28;100.00;100864.31;4991062;28;20093;-44
2023/09/13 04:30:14;;;;;;;5.93;3.28;;;;;;;25.26;100.00;100864.03;4990182;28;20046;-46
2023/09/13 04:32:42;;;;;;;5.80;3.53;;;;;;;25.28;100.00;100867.91;4995521;28;20770;-45
2023/09/13 04:35:09;;;;;;;4.82;3.17;;;;;;;25.26;100.00;100873.34;4989959;28;20077;-46
2023/09/13 04:37:35;;;;;;;6.88;3.40;;;;;;;25.29;100.00;100872.31;4989963;28;20156;-45
2023/09/13 04:40:07;;;;;;;6.55;3.47;;;;;;;25.28;100.00;100876.44;4990187;28;20436;-46
2023/09/13 04:42:40;;;;;;;5.90;3.28;;;;;;;25.30;100.00;100867.38;4989934;28;20492;-46
2023/09/13 04:45:07;;;;;;;5.45;3.40;;;;;;;25.27;100.00;100872.06;4990143;28;20085;-45
2023/09/13 04:47:35;;;;;;;4.53;2.97;;;;;;;25.29;100.00;100869.47;4989617;28;20054;-46
2023/09/13 04:50:02;;;;;;;4.68;3.03;;;;;;;25.26;100.00;100866.88;4989204;28;20076;-49
2023/09/13 04:52:28;;;;;;;5.03;3.47;;;;;;;25.26;100.00;100864.81;4993214;28;20125;-48
2023/09/13 04:54:55;;;;;;;5.32;3.00;;;;;;;25.28;100.00;100867.91;4989297;28;20619;-44
2023/09/13 04:57:22;;;;;;;7.38;3.95;;;;;;;25.27;100.00;100874.09;4989407;28;20078;-45
2023/09/13 04:59:48;;;;;;;4.57;3.15;;;;;;;25.27;100.00;100879.78;4989583;28;20050;-45
2023/09/13 05:02:18;;;;;;;4.80;3.05;;;;;;;25.29;100.00;100885.75;4989796;28;20481;-43
2023/09/13 05:04:44;;;;;;;4.80;3.22;;;;;;;25.29;100.00;100889.41;4988018;28;20508;-44
2023/09/13 05:07:11;;;;;;;5.30;3.35;;;;;;;25.34;100.00;100893.53;4991899;28;20053;-46
2023/09/13 05:09:38;;;;;;;4.78;2.83;;;;;;;25.33;100.00;100886.28;4991239;28;20464;-47
2023/09/13 05:12:04;;;;;;;5.30;3.42;;;;;;;25.35;100.00;100881.63;4989579;28;20500;-44
2023/09/13 05:14:31;;;;;;;6.32;3.00;;;;;;;25.34;100.00;100885.75;4989635;28;20129;-45
2023/09/13 05:16:57;;;;;;;6.10;3.38;;;;;;;25.31;100.00;100891.72;4989669;28;20058;-45
2023/09/13 05:19:24;;;;;;;4.10;2.75;;;;;;;25.28;100.00;100887.81;4993433;28;20054;-45
2023/09/13 05:21:51;;;;;;;6.10;3.13;;;;;;;25.33;100.00;100895.59;4990345;28;20058;-44
2023/09/13 05:24:18;;;;;;;3.90;2.90;;;;;;;25.32;100.00;100890.44;4988942;28;20421;-44
2023/09/13 05:26:45;;;;;;;5.65;3.03;;;;;;;25.33;100.00;100889.13;4989298;28;20046;-45
2023/09/13 05:29:11;;;;;;;5.00;2.95;;;;;;;25.33;100.00;100903.34;4989368;28;20081;-45
2023/09/13 05:31:38;;;;;;;4.82;3.05;;;;;;;25.32;100.00;100901.81;4990115;28;20058;-48
2023/09/13 05:34:04;;;;;;;5.10;2.70;;;;;;;25.32;100.00;100905.44;4997795;28;20078;-46
2023/09/13 05:36:31;;;;;;;3.95;2.80;;;;;;;25.29;100.00;100900.78;4993768;28;20058;-46
2023/09/13 05:38:58;;;;;;;5.88;3.17;;;;;;;25.33;100.00;100909.03;4988151;28;20509;-45
2023/09/13 05:41:24;;;;;;;4.07;2.80;;;;;;;25.34;100.00;100919.16;4989111;28;20082;-47
2023/09/13 05:43:51;;;;;;;4.22;2.83;;;;;;;25.29;100.00;100911.38;4988728;28;20050;-45
2023/09/13 05:46:17;;;;;;;3.95;2.78;;;;;;;25.27;100.00;100909.03;4988690;28;20497;-47
2023/09/13 05:48:46;;;;;;;5.60;3.00;;;;;;;25.32;100.00;100911.13;4988726;28;20129;-45
2023/09/13 05:51:13;;;;;;;5.18;2.97;;;;;;;25.28;100.00;100921.97;4994072;28;20050;-45
2023/09/13 05:53:40;;;;;;;5.15;3.33;;;;;;;25.28;100.00;100930.50;4988548;28;20465;-47
2023/09/13 05:56:10;;;;;;;4.97;2.78;;;;;;;25.30;100.00;100927.94;4995817;28;20050;-45
2023/09/13 05:58:37;;;;;;;4.65;3.28;;;;;;;25.26;100.00;100933.09;4989178;28;20090;-45
2023/09/13 06:01:05;;;;;;;4.13;2.83;;;;;;;25.28;100.00;100941.13;4994548;28;20093;-45
2023/09/13 06:03:32;;;;;;;4.30;3.10;;;;;;;25.27;100.00;100931.00;4996532;28;20050;-47
2023/09/13 06:05:59;;;;;;;4.82;3.17;;;;;;;25.27;100.00;100939.56;4988873;28;20050;-47
2023/09/13 06:08:25;;;;;;;4.85;3.10;;;;;;;25.25;100.00;100942.16;4996003;28;20121;-46
2023/09/13 06:10:54;;;;;;;5.82;3.47;;;;;;;25.27;100.00;100942.41;4998639;28;20058;-45
2023/09/13 06:13:21;;;;;;;5.55;3.08;;;;;;;25.25;100.00;100945.78;4993429;28;20121;-47
2023/09/13 06:15:47;;;;;;;4.65;2.88;;;;;;;25.27;100.00;100948.88;4998537;28;20532;-41
2023/09/13 06:18:14;;;;;;;19.17;9.73;;;;;;;25.38;100.00;100948.88;4991888;28;20508;-45
2023/09/13 06:20:41;;;;;;;23.98;12.10;;;;;;;25.38;100.00;100948.88;4990997;28;20050;-49
2023/09/13 06:23:34;;;;;;;28.42;17.02;;;;;;;25.38;100.00;100960.28;4999703;28;20053;-47
2023/09/13 06:26:02;;;;;;;27.90;16.30;;;;;;;25.33;100.00;100966.75;4988154;28;20046;-44
2023/09/13 06:28:29;;;;;;;28.80;14.85;;;;;;;25.32;100.00;100964.41;4991284;28;20105;-45
2023/09/13 06:30:57;;;;;;;32.20;18.83;;;;;;;25.21;100.00;100964.38;4999095;28;20046;-45
2023/09/13 06:33:29;;;;;;;27.58;15.18;;;;;;;25.26;100.00;100970.09;4992707;28;20058;-45
2023/09/13 06:36:08;;;;;;;33.88;18.65;;;;;;;25.22;100.00;100966.72;4994456;28;20054;-48
2023/09/13 06:38:35;;;;;;;26.70;15.55;;;;;;;25.16;100.00;100965.13;4991223;28;20047;-48
2023/09/13 06:41:03;;;;;;;29.88;18.17;;;;;;;25.15;100.00;100970.06;4999755;28;20417;-44
2023/09/13 06:43:30;;;;;;;33.25;19.85;;;;;;;25.06;100.00;100967.44;4992118;28;20460;-46
2023/09/13 06:46:00;;;;;;;33.58;19.83;;;;;;;25.04;100.00;100975.69;4988548;28;20050;-47
2023/09/13 06:48:32;;;;;;;30.45;17.05;;;;;;;25.02;100.00;100974.66;4991189;28;20558;-47
2023/09/13 06:51:01;;;;;;;30.38;17.55;;;;;;;25.07;100.00;100971.84;4982724;28;20145;-46
2023/09/13 06:53:47;;;;;;;27.13;15.13;;;;;;;25.05;100.00;100979.31;4989101;28;20610;-45
2023/09/13 06:56:17;;;;;;;31.52;18.70;;;;;;;25.13;100.00;100978.31;5001104;28;20051;-45
2023/09/13 06:58:46;;;;;;;32.22;19.42;;;;;;;25.07;100.00;100991.75;4995403;28;20054;-46
2023/09/13 07:01:16;;;;;;;32.08;18.65;;;;;;;25.15;100.00;100992.81;4992044;28;20116;-44
2023/09/13 07:03:47;;;;;;;36.20;19.20;;;;;;;25.18;100.00;100997.47;4993493;28;20090;-45
2023/09/13 07:06:21;;;;;;;;;;;;;;;25.20;100.00;100992.06;4995605;28;20049;-45
2023/09/13 07:08:47;;;;;;;36.08;21.17;;;;;;;25.14;100.00;100996.94;4991386;28;20085;-45
2023/09/13 07:11:17;;;;;;;39.45;23.20;;;;;;;25.16;100.00;101005.75;4992323;28;20093;-45
2023/09/13 07:13:44;;;;;;;39.75;22.42;;;;;;;25.12;100.00;101005.22;4987196;28;20141;-45
2023/09/13 07:16:10;;;;;;;39.70;23.85;;;;;;;25.11;100.00;101008.59;4988252;28;20544;-42
2023/09/13 07:18:37;;;;;;;37.15;20.95;;;;;;;25.10;100.00;101010.63;4989234;28;20058;-47
2023/09/13 07:21:03;;;;;;;39.80;22.02;;;;;;;25.14;100.00;101011.16;4992682;28;20105;-44
2023/09/13 07:23:30;;;;;;;36.72;23.10;;;;;;;25.12;100.00;101012.97;4991874;28;20073;-44
2023/09/13 07:25:57;;;;;;;33.83;20.25;;;;;;;25.10;100.00;101018.38;4991355;28;20167;-46
2023/09/13 07:28:24;;;;;;;33.75;20.13;;;;;;;25.13;100.00;101018.16;4990402;28;20056;-44
2023/09/13 07:30:51;;;;;;;34.22;20.55;;;;;;;25.13;100.00;101012.47;4991264;28;20050;-44
2023/09/13 07:33:17;;;;;;;36.10;20.70;;;;;;;25.11;100.00;101009.34;4991338;28;20058;-46
2023/09/13 07:35:44;;;;;;;34.63;18.88;;;;;;;25.09;100.00;101014.78;4990042;28;20054;-46
2023/09/13 07:38:10;;;;;;;33.33;19.83;;;;;;;25.12;100.00;101015.81;4987986;28;20133;-43
2023/09/13 07:40:39;;;;;;;34.42;19.83;;;;;;;25.06;100.00;101021.50;4989259;28;20046;-46
2023/09/13 07:43:07;;;;;;;35.97;19.92;;;;;;;25.10;100.00;101024.84;4989863;28;20042;-46
2023/09/13 07:45:34;;;;;;;33.20;19.58;;;;;;;25.06;100.00;101029.22;4987915;28;20078;-46
2023/09/13 07:48:02;;;;;;;34.50;19.13;;;;;;;25.05;100.00;101034.16;4993809;28;20088;-46
2023/09/13 07:50:29;;;;;;;33.50;19.55;;;;;;;25.08;100.00;101033.16;4988021;28;20807;-46
2023/09/13 07:52:56;;;;;;;36.20;20.08;;;;;;;25.07;100.00;101040.09;4989870;28;20137;-49
2023/09/13 07:55:31;;;;;;;39.40;21.52;;;;;;;25.03;100.00;101042.41;4990201;28;20762;-44
2023/09/13 07:57:58;;;;;;;37.42;20.40;;;;;;;25.05;100.00;101048.38;4988042;28;20114;-48
2023/09/13 08:00:24;;;;;;;36.13;20.92;;;;;;;25.05;100.00;101044.75;4988680;28;20519;-45
2023/09/13 08:02:51;;;;;;;35.33;19.15;;;;;;;25.01;100.00;101059.19;4987712;28;20148;-45
2023/09/13 08:05:17;;;;;;;35.03;18.90;;;;;;;25.02;100.00;101052.25;4986955;28;20676;-46
2023/09/13 08:07:44;;;;;;;33.35;18.40;;;;;;;25.00;100.00;101063.34;4987204;28;20504;-45
2023/09/13 08:10:11;;;;;;;35.40;18.45;;;;;;;24.99;100.00;101069.53;4986112;28;20137;-47
2023/09/13 08:12:38;;;;;;;31.08;18.02;;;;;;;24.94;100.00;101062.53;4990573;28;20120;-46
2023/09/13 08:15:05;;;;;;;32.35;17.33;;;;;;;24.93;100.00;101068.72;4988199;28;20513;-45
2023/09/13 08:17:33;;;;;;;30.17;17.38;;;;;;;24.95;100.00;101078.31;4989046;28;20050;-45
2023/09/13 08:20:02;;;;;;;27.15;15.70;;;;;;;24.92;100.00;101085.03;4982321;28;20141;-43
2023/09/13 08:22:31;;;;;;;25.45;15.13;;;;;;;24.93;100.00;101089.41;4989234;28;20077;-46
2023/09/13 08:25:07;;;;;;;28.55;16.48;;;;;;;24.91;100.00;101083.47;4989214;28;20046;-45
2023/09/13 08:27:37;;;;;;;26.55;15.60;;;;;;;24.93;100.00;101085.78;4989257;28;20100;-45
2023/09/13 08:30:05;;;;;;;23.38;13.65;;;;;;;24.95;100.00;101086.84;4988637;28;20141;-45
2023/09/13 08:32:36;;;;;;;25.98;14.02;;;;;;;24.94;100.00;101099.50;4989957;28;20473;-45
2023/09/13 08:35:03;;;;;;;25.27;12.73;;;;;;;24.94;100.00;101098.75;4988190;28;20121;-46
2023/09/13 08:37:30;;;;;;;26.00;13.30;;;;;;;24.96;100.00;101101.84;4988822;28;20050;-45
2023/09/13 08:39:56;;;;;;;26.15;14.07;;;;;;;24.94;100.00;101099.50;4988423;28;20089;-46
2023/09/13 08:42:28;;;;;;;25.23;12.32;;;;;;;24.95;100.00;101100.28;4988702;28;20050;-46
2023/09/13 08:44:57;;;;;;;22.70;12.00;;;;;;;24.95;100.00;101098.25;4983342;28;20053;-45
2023/09/13 08:47:29;;;;;;;22.65;12.63;;;;;;;25.03;100.00;101105.00;4976127;28;20051;-46
2023/09/13 08:50:13;;;;;;;26.38;14.02;;;;;;;25.00;100.00;101108.84;4978646;28;20057;-44
2023/09/13 08:52:42;;;;;;;33.20;19.35;;;;;;;25.07;100.00;101114.06;4977351;28;20416;-44
2023/09/13 08:55:09;;;;;;;35.00;20.50;;;;;;;25.02;100.00;101120.50;4981814;28;20066;-44
2023/09/13 08:57:36;;;;;;;37.55;20.50;;;;;;;25.06;100.00;101123.09;4981492;28;20053;-45
2023/09/13 09:00:08;;;;;;;36.15;21.90;;;;;;;25.04;100.00;101123.59;4981326;28;20058;-44
2023/09/13 09:02:39;;;;;;;35.85;21.08;;;;;;;25.00;100.00;101128.00;4983128;28;20049;-44
2023/09/13 09:05:10;;;;;;;37.67;20.75;;;;;;;25.04;100.00;101122.84;4985279;28;20053;-45
2023/09/13 09:07:39;;;;;;;40.25;20.70;;;;;;;24.92;100.00;101124.06;4985686;28;20053;-46
2023/09/13 09:10:11;;;;;;;37.47;20.60;;;;;;;24.99;100.00;101134.97;4984557;28;20051;-45
2023/09/13 09:12:48;;;;;;;33.03;18.77;;;;;;;24.99;100.00;101126.44;4992929;28;20054;-46
2023/09/13 09:15:17;;;;;;;36.80;21.60;;;;;;;24.98;100.00;101125.66;4991661;28;20070;-45
2023/09/13 09:17:48;;;;;;;39.05;22.80;;;;;;;24.96;100.00;101124.59;4985315;28;20082;-45
2023/09/13 09:20:15;;;;;;;35.17;21.60;;;;;;;24.95;100.00;101132.38;4988812;28;20116;-44
2023/09/13 09:22:41;;;;;;;41.45;23.65;;;;;;;24.95;100.00;101138.06;4985467;28;20045;-47
2023/09/13 09:25:10;;;;;;;39.85;21.40;;;;;;;24.88;100.00;101127.16;4985347;28;20671;-46
2023/09/13 09:27:40;;;;;;;33.85;19.42;;;;;;;24.86;100.00;101145.97;4981545;28;20194;-45
2023/09/13 09:30:07;;;;;;;36.80;21.13;;;;;;;24.90;100.00;101141.63;4988366;28;20139;-44
2023/09/13 09:32:37;;;;;;;34.63;18.63;;;;;;;24.93;100.00;101128.44;4985842;28;20045;-45
2023/09/13 09:35:04;;;;;;;40.40;21.17;;;;;;;24.94;100.00;101132.88;4985061;28;20591;-44
2023/09/13 09:37:35;;;;;;;33.85;20.50;;;;;;;24.93;100.00;101140.63;4985067;28;20058;-43
2023/09/13 09:40:11;;;;;;;33.65;19.67;;;;;;;24.93;100.00;101143.47;4990855;28;20161;-44
2023/09/13 09:42:37;;;;;;;33.13;18.58;;;;;;;24.90;100.00;101138.03;4990727;28;20566;-45
2023/09/13 09:45:06;;;;;;;30.58;17.65;;;;;;;24.91;100.00;101134.66;4985916;28;20138;-44
2023/09/13 09:47:37;;;;;;;29.25;15.45;;;;;;;24.90;100.00;101164.38;4988574;28;20046;-43
2023/09/13 09:50:04;;;;;;;29.58;16.40;;;;;;;24.88;100.00;101178.34;4981272;28;20311;-42
2023/09/13 09:52:32;;;;;;;30.60;15.95;;;;;;;24.89;100.00;101176.25;4992618;28;20050;-46
2023/09/13 09:54:59;;;;;;;26.15;11.82;;;;;;;24.95;100.00;101180.72;4983434;28;20468;-47
2023/09/13 09:57:29;;;;;;;24.27;9.90;;;;;;;24.94;100.00;101181.97;4982003;28;20084;-44
2023/09/13 09:59:58;;;;;;;19.38;8.38;;;;;;;24.95;100.00;101179.94;4989565;28;20112;-46
2023/09/13 10:02:28;;;;;;;16.17;7.47;;;;;;;24.95;100.00;101199.84;4989663;28;20054;-44
2023/09/13 10:04:59;;;;;;;20.38;7.40;;;;;;;24.94;100.00;101203.97;4989045;28;20038;-48
2023/09/13 10:07:25;;;;;;;15.57;6.20;;;;;;;24.97;100.00;101202.97;4988288;28;20061;-47
2023/09/13 10:09:54;;;;;;;12.85;5.35;;;;;;;24.97;100.00;101206.56;4985855;28;20136;-46
2023/09/13 10:12:20;;;;;;;13.68;5.30;;;;;;;24.93;100.00;101213.78;4986654;28;20058;-48
2023/09/13 10:14:47;;;;;;;14.93;5.22;;;;;;;24.90;100.00;101221.25;4984066;28;20738;-44
2023/09/13 10:17:16;;;;;;;13.60;5.07;;;;;;;24.90;100.00;101224.09;4985141;28;20046;-46
2023/09/13 10:19:46;;;;;;;12.23;4.32;;;;;;;24.94;100.00;101236.03;4989588;28;20050;-45
2023/09/13 10:22:17;;;;;;;9.57;3.72;;;;;;;24.95;100.00;101239.66;4994948;28;20070;-44
2023/09/13 10:24:54;;;;;;;7.05;3.22;;;;;;;24.93;100.00;101237.31;4985133;28;20046;-47
2023/09/13 10:27:22;;;;;;;11.02;3.40;;;;;;;24.85;100.00;101243.97;4991265;28;20042;-48
2023/09/13 10:29:55;;;;;;;10.48;3.70;;;;;;;24.92;100.00;101238.59;4987198;28;20125;-44
2023/09/13 10:32:30;;;;;;;6.70;3.03;;;;;;;24.96;100.00;101244.84;4992511;28;20052;-46
2023/09/13 10:35:00;;;;;;;9.88;3.50;;;;;;;24.93;100.00;101250.75;4990734;28;20073;-45
2023/09/13 10:37:33;;;;;;;6.95;2.92;;;;;;;24.93;100.00;101247.91;4996572;28;20050;-46
2023/09/13 10:40:10;;;;;;;4.45;2.50;;;;;;;24.90;100.00;101249.69;4992823;28;20055;-47
2023/09/13 10:42:39;;;;;;;7.40;2.83;;;;;;;24.91;100.00;101262.66;4990320;28;20046;-47
2023/09/13 10:45:07;;;;;;;6.35;3.10;;;;;;;24.93;100.00;101259.28;4985216;28;20046;-46
2023/09/13 10:47:36;;;;;;;7.45;2.42;;;;;;;24.95;100.00;101259.56;4988273;28;20055;-48
2023/09/13 10:50:07;;;;;;;7.78;2.97;;;;;;;24.97;100.00;101266.31;4988579;28;20058;-45
2023/09/13 10:52:34;;;;;;;4.97;2.13;;;;;;;24.95;100.00;101271.72;4984240;28;20050;-46
2023/09/13 10:55:06;;;;;;;8.07;2.05;;;;;;;24.94;100.00;101270.16;4982810;28;20576;-44
2023/09/13 10:57:34;;;;;;;6.18;2.13;;;;;;;24.92;100.00;101272.72;4986063;28;20689;-44
2023/09/13 11:00:09;;;;;;;5.03;1.85;;;;;;;24.93;100.00;101282.03;4987500;28;20137;-45
2023/09/13 11:02:37;;;;;;;7.03;2.55;;;;;;;24.98;100.00;101284.16;4987524;28;20590;-44
2023/09/13 11:05:05;;;;;;;4.97;2.00;;;;;;;24.89;100.00;101293.66;4991037;28;20050;-48
2023/09/13 11:07:33;;;;;;;6.78;1.73;;;;;;;24.92;100.00;101291.84;4990580;28;20137;-47
2023/09/13 11:10:04;;;;;;;7.07;2.10;;;;;;;24.91;100.00;101296.00;4990125;28;20050;-46
2023/09/13 11:12:37;;;;;;;4.15;1.60;;;;;;;24.89;100.00;101310.72;5000376;28;20085;-46
2023/09/13 11:15:18;;;;;;;4.13;1.63;;;;;;;24.89;100.00;101310.72;4983970;28;20129;-47
2023/09/13 11:17:45;;;;;;;4.60;1.83;;;;;;;24.82;100.00;101318.88;4991095;28;20099;-46
2023/09/13 11:20:38;;;;;;;2.40;1.27;;;;;;;24.89;100.00;101327.00;4988170;28;20050;-45